createdAt,value
2019-03-04T00:01:44.177Z,98997.95
2019-03-04T00:04:51.508Z,98991.35
2019-03-04T00:07:59.000Z,98984.83
2019-03-04T00:11:15.821Z,98975.42
2019-03-04T00:14:32.925Z,98967.34
2019-03-04T00:17:40.312Z,98956.54
2019-03-04T00:20:47.542Z,98942.31
2019-03-04T00:23:53.889Z,98939.17
2019-03-04T00:27:01.087Z,98947.91
2019-03-04T00:30:08.891Z,98940.45
2019-03-04T00:33:16.218Z,98924.72
2019-03-04T00:36:23.354Z,98925.09
2019-03-04T00:39:30.645Z,98909.69
2019-03-04T00:42:37.901Z,98919.15
2019-03-04T00:45:45.189Z,98904.73
2019-03-04T00:48:52.428Z,98912.73
2019-03-04T00:51:59.576Z,98908.04
2019-03-04T00:55:06.993Z,98914.34
2019-03-04T00:58:14.527Z,98911.05
2019-03-04T01:01:21.653Z,98893.37
2019-03-04T01:04:28.782Z,98904.78
2019-03-04T01:07:36.090Z,98902.91
2019-03-04T01:10:43.455Z,98910.97
2019-03-04T01:13:50.659Z,98890.80
2019-03-04T01:16:57.876Z,98890.43
2019-03-04T01:20:04.554Z,98882.98
2019-03-04T01:23:11.585Z,98894.63
2019-03-04T01:26:18.713Z,98915.97
2019-03-04T01:29:25.951Z,98910.02
2019-03-04T01:32:33.254Z,98896.14
2019-03-04T01:35:40.710Z,98886.81
2019-03-04T01:38:47.825Z,98870.27
2019-03-04T01:41:55.004Z,98855.84
2019-03-04T01:45:02.203Z,98849.31
2019-03-04T01:48:09.513Z,98862.12
2019-03-04T01:51:16.748Z,98872.02
2019-03-04T01:54:24.019Z,98876.77
2019-03-04T01:57:31.307Z,98846.62
2019-03-04T02:00:39.194Z,98826.09
2019-03-04T02:03:55.771Z,98821.08
2019-03-04T02:07:12.139Z,98810.48
2019-03-04T02:10:19.653Z,98795.09
2019-03-04T02:13:36.119Z,98795.09
2019-03-04T02:16:43.407Z,98794.51
2019-03-04T02:20:00.159Z,98791.73
2019-03-04T02:23:16.951Z,98782.28
2019-03-04T02:26:34.511Z,98762.70
2019-03-04T02:29:41.812Z,98768.30
2019-03-04T02:32:49.218Z,98777.73
2019-03-04T02:35:56.842Z,98778.33
2019-03-04T02:39:05.061Z,98757.34
2019-03-04T02:42:12.257Z,98754.31
2019-03-04T02:45:19.880Z,98750.59
2019-03-04T02:48:27.402Z,98743.72
2019-03-04T02:51:34.537Z,98731.25
2019-03-04T02:54:51.217Z,98730.88
2019-03-04T02:57:58.552Z,98707.84
2019-03-04T03:01:15.353Z,98682.07
2019-03-04T03:04:31.996Z,98668.54
2019-03-04T03:07:39.377Z,98673.11
2019-03-04T03:10:56.112Z,98667.97
2019-03-04T03:14:12.777Z,98652.73
2019-03-04T03:17:20.032Z,98663.44
2019-03-04T03:20:36.685Z,98658.19
2019-03-04T03:23:43.914Z,98651.67
2019-03-04T03:26:51.411Z,98626.45
2019-03-04T03:30:13.971Z,98623.67
2019-03-04T03:33:21.115Z,98613.77
2019-03-04T03:36:28.381Z,98597.72
2019-03-04T03:39:35.509Z,98586.41
2019-03-04T03:42:42.792Z,98570.34
2019-03-04T03:45:59.748Z,98565.95
2019-03-04T03:49:16.200Z,98572.15
2019-03-04T03:52:23.584Z,98573.13
2019-03-04T03:55:40.196Z,98566.89
2019-03-04T03:58:47.322Z,98577.14
2019-03-04T04:01:54.581Z,98575.27
2019-03-04T04:05:01.700Z,98564.23
2019-03-04T04:08:08.097Z,98568.30
2019-03-04T04:11:15.254Z,98573.64
2019-03-04T04:14:21.306Z,98559.06
2019-03-04T04:17:28.462Z,98566.42
2019-03-04T04:20:35.596Z,98553.98
2019-03-04T04:23:43.696Z,98556.42
2019-03-04T04:27:00.208Z,98535.86
2019-03-04T04:30:08.026Z,98512.37
2019-03-04T04:33:15.198Z,98507.70
2019-03-04T04:36:22.702Z,98497.63
2019-03-04T04:39:29.817Z,98493.69
2019-03-04T04:42:37.024Z,98467.09
2019-03-04T04:45:45.331Z,98467.57
2019-03-04T04:49:01.793Z,98449.20
2019-03-04T04:52:09.023Z,98451.66
2019-03-04T04:55:16.559Z,98420.52
2019-03-04T04:58:33.046Z,98402.53
2019-03-04T05:01:40.170Z,98402.18
2019-03-04T05:04:47.319Z,98415.80
2019-03-04T05:07:54.460Z,98402.53
2019-03-04T05:11:11.691Z,98384.55
2019-03-04T05:14:28.174Z,98363.18
2019-03-04T05:17:35.330Z,98374.85
2019-03-04T05:20:42.454Z,98374.88
2019-03-04T05:23:49.677Z,98378.14
2019-03-04T05:26:56.920Z,98372.75
2019-03-04T05:30:04.438Z,98361.56
2019-03-04T05:33:20.909Z,98362.21
2019-03-04T05:36:28.193Z,98348.69
2019-03-04T05:39:35.379Z,98320.73
2019-03-04T05:42:42.493Z,98311.20
2019-03-04T05:45:49.626Z,98300.91
2019-03-04T05:48:56.753Z,98282.59
2019-03-04T05:52:03.931Z,98265.68
2019-03-04T05:55:12.496Z,98254.20
2019-03-04T05:58:19.722Z,98234.59
2019-03-04T06:01:34.476Z,98224.56
2019-03-04T06:04:43.802Z,98210.20
2019-03-04T06:07:58.261Z,98207.80
2019-03-04T06:11:16.281Z,98192.14
2019-03-04T06:14:23.538Z,98192.20
2019-03-04T06:17:30.730Z,98180.77
2019-03-04T06:20:37.901Z,98175.09
2019-03-04T06:23:45.026Z,98177.33
2019-03-04T06:26:52.162Z,98175.78
2019-03-04T06:29:59.386Z,98167.08
2019-03-04T06:33:06.676Z,98166.67
2019-03-04T06:36:13.939Z,98172.12
2019-03-04T06:39:30.559Z,98147.91
2019-03-04T06:42:37.311Z,98153.71
2019-03-04T06:45:44.629Z,98151.19
2019-03-04T06:48:51.346Z,98135.23
2019-03-04T06:51:58.722Z,98121.98
2019-03-04T06:55:27.756Z,98119.22
2019-03-04T06:58:46.515Z,98120.91
2019-03-04T07:01:57.050Z,98117.80
2019-03-04T07:05:37.605Z,98081.84
2019-03-04T07:09:14.806Z,98086.97
2019-03-04T07:12:31.320Z,98061.48
2019-03-04T07:15:38.438Z,98050.94
2019-03-04T07:18:45.665Z,98051.89
2019-03-04T07:21:52.952Z,98041.33
2019-03-04T07:25:09.918Z,98037.68
2019-03-04T07:28:26.610Z,98033.98
2019-03-04T07:31:33.807Z,98023.48
2019-03-04T07:34:50.534Z,98023.45
2019-03-04T07:38:23.451Z,98016.84
2019-03-04T07:41:42.116Z,98008.18
2019-03-04T07:45:00.319Z,97982.61
2019-03-04T07:48:16.840Z,97970.74
2019-03-04T07:51:23.972Z,97966.95
2019-03-04T07:54:31.199Z,97973.30
2019-03-04T07:57:38.330Z,97967.03
2019-03-04T08:00:45.568Z,97958.06
2019-03-04T08:03:52.713Z,97955.64
2019-03-04T08:07:37.754Z,97950.37
2019-03-04T08:11:20.754Z,97935.64
2019-03-04T08:14:28.186Z,97917.91
2019-03-04T08:17:44.884Z,97911.20
2019-03-04T08:20:52.118Z,97911.70
2019-03-04T08:24:08.840Z,97899.50
2019-03-04T08:27:16.151Z,97887.16
2019-03-04T08:30:32.842Z,97880.49
2019-03-04T08:33:49.520Z,97876.20
2019-03-04T08:36:56.678Z,97857.12
2019-03-04T08:40:04.140Z,97854.73
2019-03-04T08:43:20.779Z,97844.95
2019-03-04T08:46:27.451Z,97848.75
2019-03-04T08:49:34.940Z,97846.80
2019-03-04T08:52:42.313Z,97840.00
2019-03-04T08:55:49.554Z,97824.67
2019-03-04T08:59:12.270Z,97830.76
2019-03-04T09:02:19.504Z,97844.98
2019-03-04T09:05:26.707Z,97858.63
2019-03-04T09:08:33.987Z,97849.64
2019-03-04T09:11:41.198Z,97864.89
2019-03-04T09:14:57.944Z,97883.74
2019-03-04T09:18:14.707Z,97984.70
2019-03-04T09:21:31.509Z,98028.16
2019-03-04T09:24:48.284Z,98040.51
2019-03-04T09:27:55.417Z,98046.02
2019-03-04T09:31:02.614Z,98032.63
2019-03-04T09:34:09.736Z,98036.48
2019-03-04T09:37:17.033Z,98026.87
2019-03-04T09:40:24.664Z,97991.52
2019-03-04T09:43:41.025Z,98008.67
2019-03-04T09:46:48.350Z,97986.39
2019-03-04T09:50:06.876Z,97977.67
2019-03-04T09:53:23.342Z,97941.69
2019-03-04T09:56:30.472Z,97982.19
2019-03-04T09:59:37.815Z,97971.17
2019-03-04T10:02:46.174Z,97957.47
2019-03-04T10:06:08.469Z,97957.09
2019-03-04T10:10:11.612Z,97956.53
2019-03-04T10:13:40.235Z,97899.05
2019-03-04T10:17:22.910Z,97887.56
2019-03-04T10:21:01.881Z,97925.81
2019-03-04T10:24:20.635Z,97913.80
2019-03-04T10:28:07.775Z,97906.00
2019-03-04T10:31:29.893Z,97908.80
2019-03-04T10:35:14.257Z,97907.94
2019-03-04T10:38:37.718Z,97887.78
2019-03-04T10:42:30.585Z,97869.91
2019-03-04T10:46:11.979Z,97886.23
2019-03-04T10:49:19.423Z,97908.62
2019-03-04T10:52:26.877Z,97913.37
2019-03-04T10:55:41.530Z,97906.13
2019-03-04T10:58:52.455Z,97884.32
2019-03-04T11:01:59.654Z,97896.94
2019-03-04T11:05:06.855Z,97892.64
2019-03-04T11:08:14.054Z,97902.39
2019-03-04T11:11:29.488Z,97891.13
2019-03-04T11:14:30.093Z,97858.47
2019-03-04T11:17:37.205Z,97884.71
2019-03-04T11:20:44.452Z,97873.30
2019-03-04T11:23:51.570Z,97881.18
2019-03-04T11:26:58.985Z,97880.64
2019-03-04T11:30:16.351Z,97865.90
2019-03-04T11:33:23.556Z,97866.57
2019-03-04T11:36:30.683Z,97847.98
2019-03-04T11:40:01.824Z,97846.17
2019-03-04T11:43:18.695Z,97829.83
2019-03-04T11:46:25.834Z,97842.86
2019-03-04T11:49:33.058Z,97820.98
2019-03-04T11:52:40.285Z,97810.69
2019-03-04T11:55:47.401Z,97817.89
2019-03-04T11:58:54.631Z,97819.97
2019-03-04T12:02:01.917Z,97837.16
2019-03-04T12:05:10.086Z,97910.77
2019-03-04T12:08:17.355Z,97963.48
2019-03-04T12:11:24.760Z,97944.36
2019-03-04T12:14:32.157Z,97970.20
2019-03-04T12:17:39.359Z,97965.11
2019-03-04T12:20:47.041Z,97977.06
2019-03-04T12:27:19.572Z,97995.13
2019-03-04T12:30:36.005Z,97983.88
2019-03-04T12:33:43.297Z,97987.34
2019-03-04T12:36:51.054Z,98000.80
2019-03-04T12:39:58.361Z,97983.64
2019-03-04T12:43:05.654Z,98007.86
2019-03-04T12:46:12.956Z,97979.13
2019-03-04T12:49:20.361Z,97976.93
2019-03-04T12:52:27.669Z,97989.09
2019-03-04T12:55:34.865Z,97998.16
2019-03-04T12:58:42.163Z,97984.59
2019-03-04T13:01:49.355Z,97981.23
2019-03-04T13:04:56.660Z,97993.87
2019-03-04T13:08:04.037Z,97987.47
2019-03-04T13:11:11.481Z,97989.55
2019-03-04T13:14:27.951Z,97984.29
2019-03-04T13:17:35.063Z,97979.78
2019-03-04T13:20:42.248Z,97989.83
2019-03-04T13:23:49.443Z,98009.77
2019-03-04T13:26:56.649Z,97991.37
2019-03-04T13:30:04.792Z,97980.69
2019-03-04T13:33:12.020Z,97992.64
2019-03-04T13:36:19.400Z,97965.34
2019-03-04T13:39:26.713Z,97970.76
2019-03-04T13:42:33.867Z,97980.16
2019-03-04T13:45:41.054Z,97959.52
2019-03-04T13:48:49.731Z,97974.50
2019-03-04T13:51:57.103Z,97969.36
2019-03-04T13:55:04.614Z,97966.37
2019-03-04T13:58:11.983Z,97998.53
2019-03-04T14:01:28.744Z,97995.98
2019-03-04T14:04:45.447Z,98020.40
2019-03-04T14:07:52.786Z,98060.47
2019-03-04T14:11:00.000Z,98056.52
2019-03-04T14:14:16.624Z,98056.91
2019-03-04T14:17:23.899Z,98033.73
2019-03-04T14:20:31.427Z,98042.66
2019-03-04T14:23:47.799Z,98046.23
2019-03-04T14:26:55.074Z,98032.90
2019-03-04T14:30:02.415Z,98042.84
2019-03-04T14:33:18.995Z,98026.49
2019-03-04T14:36:26.187Z,98020.47
2019-03-04T14:39:33.503Z,98021.65
2019-03-04T14:42:50.215Z,98022.36
2019-03-04T14:45:57.519Z,98034.55
2019-03-04T14:49:14.189Z,98039.52
2019-03-04T14:52:21.511Z,98045.09
2019-03-04T14:55:38.147Z,98050.79
2019-03-04T14:59:09.903Z,98040.93
2019-03-04T15:02:13.323Z,98043.24
2019-03-04T15:05:20.701Z,98064.23
2019-03-04T15:08:37.557Z,98056.70
2019-03-04T15:11:53.993Z,98056.02
2019-03-04T15:15:11.123Z,98055.06
2019-03-04T15:18:27.611Z,98056.69
2019-03-04T15:21:34.808Z,98058.89
2019-03-04T15:24:51.599Z,98072.13
2019-03-04T15:28:13.734Z,98059.36
2019-03-04T15:31:20.887Z,98093.80
2019-03-04T15:34:28.191Z,98082.19
2019-03-04T15:37:35.342Z,98085.33
2019-03-04T15:40:41.914Z,98084.19
2019-03-04T15:43:49.153Z,98088.10
2019-03-04T15:46:56.362Z,98086.02
2019-03-04T15:50:13.180Z,98099.00
2019-03-04T15:53:29.897Z,98090.42
2019-03-04T15:56:37.063Z,98094.59
2019-03-04T15:59:44.199Z,98086.45
2019-03-04T16:02:51.719Z,98109.98
2019-03-04T16:06:09.025Z,98146.90
2019-03-04T16:09:26.071Z,98103.62
2019-03-04T16:12:42.559Z,98136.86
2019-03-04T16:15:49.753Z,98132.17
2019-03-04T16:18:56.977Z,98129.69
2019-03-04T16:22:04.388Z,98124.94
2019-03-04T16:25:12.147Z,98153.41
2019-03-04T16:28:23.353Z,98153.83
2019-03-04T16:31:29.998Z,98153.83
2019-03-04T16:34:37.225Z,98159.22
2019-03-04T16:37:44.442Z,98160.15
2019-03-04T16:40:51.584Z,98185.67
2019-03-04T16:43:58.900Z,98192.50
2019-03-04T16:47:07.318Z,98184.91
2019-03-04T16:50:14.865Z,98200.65
2019-03-04T16:53:22.391Z,98212.65
2019-03-04T16:56:29.591Z,98231.92
2019-03-04T16:59:37.411Z,98222.09
2019-03-04T17:02:53.959Z,98226.73
2019-03-04T17:06:10.519Z,98203.17
2019-03-04T17:09:19.481Z,98231.06
2019-03-04T17:12:26.578Z,98233.26
2019-03-04T17:15:33.839Z,98245.38
2019-03-04T17:18:50.481Z,98229.12
2019-03-04T17:22:07.203Z,98244.50
2019-03-04T17:25:23.986Z,98242.91
2019-03-04T17:28:40.623Z,98246.02
2019-03-04T17:31:47.750Z,98259.89
2019-03-04T17:34:55.235Z,98270.01
2019-03-04T17:38:11.743Z,98277.14
2019-03-04T17:41:18.879Z,98273.75
2019-03-04T17:44:26.082Z,98309.89
2019-03-04T17:47:33.271Z,98309.39
2019-03-04T17:50:40.708Z,98310.20
2019-03-04T17:53:57.322Z,98317.92
2019-03-04T17:57:14.439Z,98313.25
2019-03-04T18:00:31.133Z,98325.48
2019-03-04T18:03:55.607Z,98336.97
2019-03-04T18:07:02.926Z,98347.58
2019-03-04T18:10:19.668Z,98330.67
2019-03-04T18:13:26.987Z,98350.02
2019-03-04T18:16:43.583Z,98338.25
2019-03-04T18:19:50.769Z,98357.91
2019-03-04T18:22:58.036Z,98374.71
2019-03-04T18:26:18.345Z,98400.84
2019-03-04T18:30:09.924Z,98380.38
2019-03-04T18:33:54.485Z,98392.78
2019-03-04T18:37:37.885Z,98395.18
2019-03-04T18:41:27.174Z,98444.22
2019-03-04T18:45:18.054Z,98418.58
2019-03-04T18:48:56.985Z,98423.67
2019-03-04T18:52:04.252Z,98427.67
2019-03-04T18:55:11.849Z,98426.58
2019-03-04T18:58:19.191Z,98463.57
2019-03-04T19:01:26.610Z,98446.53
2019-03-04T19:04:33.901Z,98471.89
2019-03-04T19:07:41.498Z,98479.87
2019-03-04T19:10:58.101Z,98467.88
2019-03-04T19:14:14.732Z,98483.40
2019-03-04T19:17:22.166Z,98481.98
2019-03-04T19:20:39.008Z,98475.55
2019-03-04T19:23:55.447Z,98489.71
2019-03-04T19:27:02.910Z,98498.02
2019-03-04T19:30:19.417Z,98498.87
2019-03-04T19:33:26.803Z,98529.47
2019-03-04T19:36:43.459Z,98519.72
2019-03-04T19:40:00.271Z,98519.19
2019-03-04T19:43:16.841Z,98524.07
2019-03-04T19:46:34.260Z,98526.33
2019-03-04T19:49:50.572Z,98543.69
2019-03-04T19:52:57.930Z,98535.42
2019-03-04T19:56:05.375Z,98524.38
2019-03-04T19:59:21.847Z,98517.89
2019-03-04T20:02:38.668Z,98548.38
2019-03-04T20:05:55.371Z,98563.73
2019-03-04T20:09:02.639Z,98567.72
2019-03-04T20:12:19.591Z,98528.05
2019-03-04T20:15:26.274Z,98551.41
2019-03-04T20:18:33.542Z,98536.79
2019-03-04T20:21:40.866Z,98557.22
2019-03-04T20:24:48.126Z,98570.08
2019-03-04T20:27:55.373Z,98571.91
2019-03-04T20:31:02.571Z,98569.38
2019-03-04T20:34:09.863Z,98548.36
2019-03-04T20:37:27.668Z,98579.73
2019-03-04T20:40:34.864Z,98575.93
2019-03-04T20:43:42.174Z,98555.89
2019-03-04T20:46:49.404Z,98585.82
2019-03-04T20:49:56.755Z,98565.03
2019-03-04T20:53:04.046Z,98581.88
2019-03-04T20:56:11.342Z,98583.00
2019-03-04T20:59:18.515Z,98595.73
2019-03-04T21:02:25.707Z,98604.09
2019-03-04T21:05:33.458Z,98601.24
2019-03-04T21:08:40.749Z,98608.72
2019-03-04T21:11:48.188Z,98613.61
2019-03-04T21:14:55.385Z,98604.80
2019-03-04T21:18:02.592Z,98597.33
2019-03-04T21:21:09.919Z,98623.00
2019-03-04T21:24:17.187Z,98627.41
2019-03-04T21:27:24.424Z,98629.09
2019-03-04T21:31:23.236Z,98641.66
2019-03-04T21:35:02.517Z,98639.67
2019-03-04T21:38:09.836Z,98645.13
2019-03-04T21:41:52.051Z,98647.68
2019-03-04T21:45:19.035Z,98672.52
2019-03-04T21:48:34.471Z,98657.53
2019-03-04T21:52:20.744Z,98666.92
2019-03-04T21:55:54.545Z,98680.27
2019-03-04T21:59:01.777Z,98661.81
2019-03-04T22:02:13.271Z,98684.30
2019-03-04T22:05:29.897Z,98686.17
2019-03-04T22:08:37.087Z,98699.03
2019-03-04T22:11:53.772Z,98696.17
2019-03-04T22:15:01.336Z,98764.73
2019-03-04T22:18:17.810Z,98706.52
2019-03-04T22:21:25.006Z,98708.77
2019-03-04T22:24:32.229Z,98705.04
2019-03-04T22:27:39.470Z,98717.48
2019-03-04T22:30:56.207Z,98764.38
2019-03-04T22:34:03.341Z,98743.88
2019-03-04T22:37:10.643Z,98739.70
2019-03-04T22:40:18.637Z,98751.53
2019-03-04T22:43:25.781Z,98748.16
2019-03-04T22:46:33.163Z,98749.43
2019-03-04T22:49:40.386Z,98736.94
2019-03-04T22:52:47.691Z,98759.23
2019-03-04T22:55:55.002Z,98759.63
2019-03-04T22:59:02.172Z,98766.27
2019-03-04T23:02:09.496Z,98776.20
2019-03-04T23:05:26.526Z,98778.36
2019-03-04T23:08:43.459Z,98794.83
2019-03-04T23:12:14.279Z,98790.02
2019-03-04T23:15:22.582Z,98789.30
2019-03-04T23:18:29.843Z,98796.04
2019-03-04T23:21:37.086Z,98802.67
2019-03-04T23:24:44.413Z,98808.78
2019-03-04T23:27:51.608Z,98816.89
2019-03-04T23:30:59.993Z,98837.19
2019-03-04T23:34:07.484Z,98817.71
2019-03-04T23:37:14.747Z,98804.87
2019-03-04T23:40:21.936Z,98817.97
2019-03-04T23:43:29.136Z,98825.06
2019-03-04T23:46:36.382Z,98818.07
2019-03-04T23:49:43.705Z,98825.00
2019-03-04T23:52:51.071Z,98821.70
2019-03-04T23:55:58.303Z,98817.34
2019-03-04T23:59:05.432Z,98824.02
